Time;durP1;ratioP1;P1;durP2;ratioP2;P2;SDS_P1;SDS_P2;PMS_P1;PMS_P2;Temp;Humidity;BMP_temperature;BMP_pressure;BME280_temperature;BME280_humidity;BME280_pressure;Samples;Min_cycle;Max_cycle;Signal;HPM_P1;HPM_P2
2022/11/08 00:04:05;;;;;;;6.75;1.88;;;19.60;88.30;;;;;;10499263;28;20056;-25
2022/11/08 00:14:27;;;;;;;5.53;1.30;;;19.70;88.30;;;;;;10499744;28;20060;-24
2022/11/08 00:19:30;;;;;;;8.45;1.40;;;19.60;87.50;;;;;;10499340;28;21200;-26
2022/11/08 00:24:33;;;;;;;5.22;1.55;;;19.40;90.10;;;;;;10490724;28;20052;-25
2022/11/08 00:29:36;;;;;;;3.45;1.20;;;19.50;89.00;;;;;;10490924;28;20041;-25
2022/11/08 00:34:39;;;;;;;4.28;1.42;;;19.50;89.30;;;;;;10490842;28;20481;-25
2022/11/08 00:39:41;;;;;;;6.13;1.40;;;19.50;88.70;;;;;;10490703;28;20519;-24
2022/11/08 00:44:43;;;;;;;3.25;1.10;;;19.60;87.90;;;;;;10493664;28;20662;-24
2022/11/08 00:49:46;;;;;;;3.03;1.63;;;19.70;87.90;;;;;;10489184;28;20143;-24
2022/11/08 00:54:48;;;;;;;6.93;1.25;;;19.60;87.40;;;;;;10492566;28;20391;-24
2022/11/08 00:59:50;;;;;;;2.58;1.48;;;19.70;86.60;;;;;;10497802;28;20144;-25
2022/11/08 01:04:53;;;;;;;3.70;1.20;;;19.60;88.20;;;;;;10497205;28;20122;-24
2022/11/08 01:09:55;;;;;;;3.00;1.23;;;19.70;85.90;;;;;;10502832;28;20127;-25
2022/11/08 01:14:57;;;;;;;4.72;1.10;;;19.80;86.50;;;;;;10481786;28;20136;-24
2022/11/08 01:20:00;;;;;;;5.38;1.33;;;19.80;86.50;;;;;;10498647;28;20076;-25
2022/11/08 01:25:02;;;;;;;2.05;1.38;;;19.40;88.20;;;;;;10500961;28;20451;-25
2022/11/08 01:30:04;;;;;;;;;;;19.60;87.10;;;;;;10502311;28;20045;-25
2022/11/08 01:35:09;;;;;;;1.53;0.87;;;19.70;86.60;;;;;;10498417;28;20424;-24
2022/11/08 01:40:11;;;;;;;5.20;1.30;;;19.50;85.60;;;;;;10499941;28;20498;-27
2022/11/08 01:45:14;;;;;;;2.72;0.95;;;19.50;87.20;;;;;;10489500;28;20045;-22
2022/11/08 01:50:18;;;;;;;4.13;1.00;;;19.60;86.70;;;;;;10478710;28;20132;-24
2022/11/08 01:55:23;;;;;;;2.55;0.82;;;19.60;87.30;;;;;;10497794;28;20135;-25
2022/11/08 02:00:25;;;;;;;4.75;1.08;;;19.60;86.90;;;;;;10484218;28;20041;-26
2022/11/08 02:05:30;;;;;;;2.75;1.30;;;19.60;86.80;;;;;;10496420;28;20040;-25
2022/11/08 02:10:35;;;;;;;2.70;0.90;;;19.60;86.70;;;;;;10498621;28;20064;-25
2022/11/08 02:15:37;;;;;;;2.83;0.80;;;19.70;86.40;;;;;;10485087;28;20101;-25
2022/11/08 02:20:46;;;;;;;2.15;0.90;;;19.60;86.90;;;;;;10493269;28;20052;-25
2022/11/08 02:25:50;;;;;;;4.07;1.30;;;19.30;88.60;;;;;;10496075;28;20489;-25
2022/11/08 02:30:51;;;;;;;3.47;1.05;;;19.70;86.20;;;;;;10499894;28;20080;-24
2022/11/08 02:35:55;;;;;;;3.03;0.77;;;19.60;86.50;;;;;;10502915;28;20578;-24
2022/11/08 02:40:59;;;;;;;3.03;0.90;;;19.50;86.70;;;;;;10488218;28;20131;-26
2022/11/08 02:46:01;;;;;;;2.67;0.88;;;19.60;86.20;;;;;;10495397;28;20044;-25
2022/11/08 02:51:03;;;;;;;3.53;1.02;;;19.40;87.50;;;;;;10492308;28;20083;-24
2022/11/08 02:56:06;;;;;;;4.70;1.55;;;19.40;87.70;;;;;;10494989;28;20133;-24
2022/11/08 03:01:09;;;;;;;2.67;0.73;;;19.20;88.30;;;;;;10501405;28;20056;-25
2022/11/08 03:06:11;;;;;;;3.13;0.90;;;19.40;87.50;;;;;;10474760;28;20045;-25
2022/11/08 03:11:14;;;;;;;1.85;0.80;;;19.30;87.20;;;;;;10491460;28;20060;-27
2022/11/08 03:16:16;;;;;;;1.63;0.82;;;19.40;86.90;;;;;;10498498;28;20148;-27
2022/11/08 03:21:18;;;;;;;3.72;1.35;;;19.40;86.90;;;;;;10487855;28;20436;-26
2022/11/08 03:26:21;;;;;;;1.98;0.98;;;19.40;86.60;;;;;;10501260;28;20128;-26
2022/11/08 03:31:23;;;;;;;2.92;0.75;;;19.60;85.80;;;;;;10517037;28;20056;-24
2022/11/08 03:36:25;;;;;;;2.33;0.63;;;19.50;86.40;;;;;;10491137;28;20049;-25
2022/11/08 03:41:28;;;;;;;2.15;1.00;;;19.50;87.00;;;;;;10495388;28;20440;-25
2022/11/08 03:46:30;;;;;;;4.95;1.30;;;19.60;85.30;;;;;;10500666;28;20070;-25
2022/11/08 03:51:32;;;;;;;3.55;0.88;;;19.50;85.80;;;;;;10501653;28;20335;-25
2022/11/08 03:56:35;;;;;;;1.20;1.00;;;19.50;85.90;;;;;;10495404;28;20053;-24
2022/11/08 04:01:37;;;;;;;4.78;1.15;;;19.60;85.40;;;;;;10487683;28;20095;-25
2022/11/08 04:06:39;;;;;;;4.05;1.02;;;19.30;86.20;;;;;;10494053;28;20044;-25
2022/11/08 04:16:58;;;;;;;1.98;0.80;;;19.40;86.60;;;;;;10457981;28;20056;-25
2022/11/08 04:22:00;;;;;;;1.77;0.95;;;19.50;85.80;;;;;;10511737;28;20131;-24
2022/11/08 04:27:03;;;;;;;1.23;0.60;;;19.50;85.60;;;;;;10506174;28;20056;-24
2022/11/08 04:32:05;;;;;;;4.57;1.08;;;19.50;85.60;;;;;;10507448;28;20173;-27
2022/11/08 04:37:07;;;;;;;2.20;0.75;;;19.30;86.20;;;;;;10502714;28;20079;-24
2022/11/08 04:42:10;;;;;;;1.55;0.70;;;19.30;86.00;;;;;;10503297;28;20529;-24
2022/11/08 04:47:12;;;;;;;3.90;0.80;;;19.40;86.00;;;;;;10501489;28;20456;-25
2022/11/08 04:52:15;;;;;;;1.25;0.60;;;19.40;85.60;;;;;;10496076;28;20075;-25
2022/11/08 04:57:18;;;;;;;2.05;0.82;;;19.40;85.30;;;;;;10483895;28;20083;-24
2022/11/08 05:02:20;;;;;;;6.20;0.88;;;19.40;85.60;;;;;;10499267;28;20133;-25
2022/11/08 05:07:22;;;;;;;3.03;1.25;;;19.30;84.90;;;;;;10483903;28;20080;-28
2022/11/08 05:12:25;;;;;;;0.98;0.75;;;19.40;85.50;;;;;;10496080;28;20044;-24
2022/11/08 05:17:27;;;;;;;2.10;0.65;;;19.40;85.10;;;;;;10483737;28;20658;-25
2022/11/08 05:27:50;;;;;;;3.70;0.63;;;19.20;86.20;;;;;;10489009;28;20041;-25
2022/11/08 05:32:52;;;;;;;2.20;0.82;;;19.20;86.10;;;;;;10472671;28;20133;-25
2022/11/08 05:37:54;;;;;;;2.50;0.90;;;19.30;84.60;;;;;;10472314;28;20061;-28
2022/11/08 05:42:57;;;;;;;0.98;0.70;;;19.30;84.60;;;;;;10471509;28;20125;-25
2022/11/08 05:48:02;;;;;;;3.03;0.98;;;19.20;84.70;;;;;;10475199;28;20045;-25
2022/11/08 05:53:04;;;;;;;1.27;0.70;;;19.10;86.20;;;;;;10468807;28;20052;-25
2022/11/08 05:58:08;;;;;;;;;;;19.20;85.50;;;;;;10478075;28;20047;-26
2022/11/08 06:03:10;;;;;;;2.92;0.77;;;19.20;85.20;;;;;;10468175;28;19962;-26
2022/11/08 06:08:11;;;;;;;2.03;0.60;;;19.30;84.80;;;;;;10474771;28;20128;-26
2022/11/08 06:13:15;;;;;;;2.30;0.60;;;19.20;85.00;;;;;;10485540;28;20086;-25
2022/11/08 06:18:16;;;;;;;3.38;1.30;;;19.20;84.60;;;;;;10493029;28;20144;-25
2022/11/08 06:23:18;;;;;;;1.80;0.90;;;19.00;84.20;;;;;;10502596;28;20044;-23
2022/11/08 06:28:22;;;;;;;1.40;0.70;;;19.20;85.10;;;;;;10483362;28;20041;-26
2022/11/08 06:33:24;;;;;;;2.10;0.60;;;19.20;85.30;;;;;;10484871;28;20159;-23
2022/11/08 06:38:26;;;;;;;4.15;1.10;;;19.20;84.60;;;;;;10478394;28;20139;-25
2022/11/08 06:43:29;;;;;;;3.42;0.80;;;19.10;85.10;;;;;;10499865;28;20434;-25
2022/11/08 06:48:31;;;;;;;7.13;1.15;;;19.20;84.60;;;;;;10472825;28;20044;-24
2022/11/08 06:53:33;;;;;;;5.60;1.25;;;18.80;85.30;;;;;;10471628;28;20129;-26
2022/11/08 06:58:36;;;;;;;1.65;0.82;;;18.80;84.80;;;;;;10477141;28;20080;-24
2022/11/08 07:15:31;;;;;;;2.78;0.90;;;19.20;82.60;;;;;;10490662;27;20119;-24
2022/11/08 07:20:33;;;;;;;1.23;0.70;;;19.10;84.90;;;;;;10464420;28;20048;-26
2022/11/08 07:25:35;;;;;;;;;;;19.20;84.20;;;;;;10485699;28;20576;-31
2022/11/08 07:30:38;;;;;;;2.17;0.73;;;19.10;84.80;;;;;;10507890;28;19973;-26
2022/11/08 07:35:41;;;;;;;4.13;0.82;;;18.90;86.30;;;;;;10492151;28;20061;-25
2022/11/08 07:40:43;;;;;;;;;;;18.80;85.60;;;;;;10501983;28;20565;-26
2022/11/08 07:45:52;;;;;;;2.25;0.98;;;19.10;85.00;;;;;;10479364;28;19936;-25
2022/11/08 07:50:54;;;;;;;2.90;0.88;;;18.90;85.10;;;;;;10480416;28;20100;-25
2022/11/08 07:55:57;;;;;;;2.78;1.02;;;19.20;82.90;;;;;;10475282;28;20443;-25
2022/11/08 08:01:03;;;;;;;1.40;0.63;;;18.90;85.70;;;;;;10487947;28;20049;-25
2022/11/08 08:06:04;;;;;;;4.03;1.30;;;18.30;87.70;;;;;;10476088;28;20056;-24
2022/11/08 08:11:07;;;;;;;1.67;1.10;;;18.80;84.30;;;;;;10477343;28;20053;-24
2022/11/08 08:16:10;;;;;;;2.58;0.93;;;18.70;81.40;;;;;;10488184;28;20057;-25
2022/11/08 08:21:12;;;;;;;1.77;0.90;;;18.40;85.20;;;;;;10496800;28;20136;-25
2022/11/08 08:26:14;;;;;;;5.22;1.00;;;18.60;87.20;;;;;;10468983;28;20064;-25
2022/11/08 08:31:17;;;;;;;3.30;1.05;;;18.80;81.50;;;;;;10450253;28;20391;-25
2022/11/08 08:36:19;;;;;;;3.03;0.85;;;18.70;83.90;;;;;;10440960;28;20124;-25
2022/11/08 08:41:21;;;;;;;5.05;1.30;;;18.90;82.90;;;;;;10450469;28;20037;-25
2022/11/08 08:46:24;;;;;;;3.80;1.02;;;18.70;83.20;;;;;;10454447;28;20049;-25
2022/11/08 08:51:26;;;;;;;3.40;0.90;;;19.10;82.10;;;;;;10443929;28;20449;-25
2022/11/08 08:56:28;;;;;;;5.60;1.08;;;18.90;82.80;;;;;;10442718;28;20525;-25
2022/11/08 09:01:31;;;;;;;2.25;1.13;;;18.70;83.60;;;;;;10455364;28;20128;-25
2022/11/08 09:06:33;;;;;;;2.40;0.80;;;18.50;77.00;;;;;;10442869;28;20064;-26
2022/11/08 09:11:35;;;;;;;1.42;0.82;;;18.50;84.70;;;;;;10447242;28;20410;-25
2022/11/08 09:16:39;;;;;;;3.85;1.15;;;17.80;88.80;;;;;;10442000;28;20037;-25
2022/11/08 09:21:41;;;;;;;1.05;0.70;;;18.50;85.30;;;;;;10445962;28;20069;-24
2022/11/08 09:26:43;;;;;;;2.35;1.20;;;18.80;83.10;;;;;;10473665;28;20044;-24
2022/11/08 09:31:46;;;;;;;5.10;1.00;;;18.90;80.40;;;;;;10441739;28;20055;-25
2022/11/08 09:36:48;;;;;;;1.88;0.65;;;18.20;86.00;;;;;;10432218;28;20065;-25
2022/11/08 09:42:19;;;;;;;6.47;1.00;;;18.30;84.40;;;;;;10445336;28;20095;-25
2022/11/08 09:47:25;;;;;;;3.15;0.82;;;18.50;77.50;;;;;;10448859;28;20082;-26
2022/11/08 09:52:30;;;;;;;4.05;1.00;;;18.30;79.80;;;;;;10445263;28;20492;-26
2022/11/08 09:57:40;;;;;;;1.90;0.90;;;18.90;78.40;;;;;;10447638;28;20078;-25
2022/11/08 10:02:43;;;;;;;4.22;1.00;;;18.60;84.10;;;;;;10451543;28;20511;-23
2022/11/08 10:07:53;;;;;;;1.83;0.93;;;18.00;87.60;;;;;;10450583;28;20045;-24
2022/11/08 10:13:04;;;;;;;3.28;1.10;;;18.40;84.80;;;;;;10429461;28;20452;-24
2022/11/08 10:18:22;;;;;;;3.65;1.33;;;18.80;80.00;;;;;;10440943;28;20401;-26
2022/11/08 10:23:32;;;;;;;5.93;1.42;;;18.50;82.80;;;;;;10461087;28;20452;-26
2022/11/08 10:28:40;;;;;;;2.47;1.30;;;17.50;87.00;;;;;;10445420;28;20053;-26
2022/11/08 10:33:47;;;;;;;1.63;0.77;;;17.90;86.40;;;;;;10452949;28;20143;-25
2022/11/08 10:38:56;;;;;;;2.03;1.00;;;18.00;88.50;;;;;;10452863;28;20382;-25
2022/11/08 10:44:05;;;;;;;3.90;1.58;;;18.20;86.70;;;;;;10440616;28;20045;-25
2022/11/08 10:49:19;;;;;;;3.50;1.30;;;18.50;84.10;;;;;;10444418;28;20655;-24
2022/11/08 10:54:44;;;;;;;9.52;1.58;;;17.50;86.60;;;;;;10477880;28;20527;-24
2022/11/08 10:59:46;;;;;;;2.72;1.05;;;17.40;89.20;;;;;;10444920;28;20052;-22
2022/11/08 11:04:50;;;;;;;2.00;1.05;;;18.80;83.70;;;;;;10450208;28;20048;-25
2022/11/08 11:09:52;;;;;;;5.57;1.05;;;18.80;82.70;;;;;;10446162;28;20053;-24
2022/11/08 11:14:57;;;;;;;8.70;2.35;;;17.80;83.40;;;;;;10447104;28;20061;-24
2022/11/08 11:20:01;;;;;;;2.58;1.02;;;18.00;87.70;;;;;;10446051;28;20045;-25
2022/11/08 11:25:07;;;;;;;4.00;0.93;;;18.10;87.80;;;;;;10454818;28;20049;-25
2022/11/08 11:30:28;;;;;;;4.45;1.02;;;18.40;86.00;;;;;;10443138;28;20056;-25
2022/11/08 11:35:42;;;;;;;2.95;1.33;;;17.90;88.30;;;;;;10436514;28;20057;-25
2022/11/08 11:40:46;;;;;;;4.20;1.38;;;17.70;87.60;;;;;;10437198;28;20045;-31
2022/11/08 11:45:55;;;;;;;7.85;1.50;;;17.20;90.40;;;;;;10447305;28;20077;-24
2022/11/08 11:50:59;;;;;;;2.42;1.67;;;17.50;86.70;;;;;;10454971;28;20123;-24
2022/11/08 11:56:31;;;;;;;2.00;1.27;;;16.90;92.50;;;;;;10445856;28;20485;-24
2022/11/08 12:01:54;;;;;;;4.60;1.52;;;17.80;91.00;;;;;;10457019;28;20534;-25
2022/11/08 12:07:01;;;;;;;1.00;0.90;;;16.90;89.70;;;;;;10442538;28;20087;-25
2022/11/08 12:12:17;;;;;;;3.97;1.15;;;17.30;91.90;;;;;;10448914;28;20145;-24
2022/11/08 12:17:33;;;;;;;8.55;1.20;;;17.30;91.20;;;;;;10467341;28;20040;-25
2022/11/08 12:22:50;;;;;;;6.85;1.90;;;17.10;90.50;;;;;;10466199;28;20102;-24
2022/11/08 12:27:56;;;;;;;4.28;1.65;;;16.20;93.40;;;;;;10476177;28;20072;-27
2022/11/08 12:33:12;;;;;;;6.35;1.70;;;16.70;93.20;;;;;;10455380;28;20147;-25
2022/11/08 12:38:27;;;;;;;2.60;1.30;;;16.70;91.60;;;;;;10455317;28;20045;-23
2022/11/08 12:43:42;;;;;;;10.80;4.80;;;17.70;91.60;;;;;;10442709;28;20468;-24
2022/11/08 12:48:59;;;;;;;5.40;2.35;;;17.40;92.10;;;;;;10456382;28;20041;-26
2022/11/08 12:54:21;;;;;;;15.70;6.68;;;17.50;91.10;;;;;;10453534;28;20057;-24
2022/11/08 12:59:26;;;;;;;51.40;23.52;;;17.20;92.20;;;;;;10443813;28;20130;-29
2022/11/08 13:04:43;;;;;;;5.75;2.35;;;17.50;91.80;;;;;;10446676;28;20045;-26
2022/11/08 13:09:53;;;;;;;3.95;2.40;;;17.70;90.20;;;;;;10439972;28;20045;-26
2022/11/08 13:14:55;;;;;;;4.47;2.28;;;18.20;89.60;;;;;;10452526;28;20056;-25
2022/11/08 13:20:03;;;;;;;4.78;1.67;;;17.90;88.40;;;;;;10449698;28;20110;-29
2022/11/08 13:25:28;;;;;;;10.43;2.47;;;17.90;88.70;;;;;;10455138;28;20052;-28
2022/11/08 13:30:40;;;;;;;4.38;2.42;;;18.00;90.70;;;;;;10437317;28;20053;-25
2022/11/08 13:35:49;;;;;;;7.47;2.00;;;18.40;87.00;;;;;;10456548;28;20088;-26
2022/11/08 13:41:14;;;;;;;2.03;1.50;;;18.20;89.00;;;;;;10439625;28;20742;-24
2022/11/08 13:46:46;;;;;;;6.57;2.55;;;18.20;87.70;;;;;;10446649;28;20095;-25
2022/11/08 13:51:50;;;;;;;2.70;1.40;;;18.30;89.10;;;;;;10437883;28;21619;-25
2022/11/08 13:56:52;;;;;;;3.28;1.40;;;18.30;87.30;;;;;;10430336;28;20047;-24
2022/11/08 14:02:02;;;;;;;2.80;1.63;;;18.70;86.70;;;;;;10446304;28;20539;-23
2022/11/08 14:07:11;;;;;;;2.90;1.73;;;18.70;88.60;;;;;;10442086;28;20048;-24
2022/11/08 14:12:20;;;;;;;2.75;1.52;;;18.50;85.90;;;;;;10433812;28;20360;-25
2022/11/08 14:17:43;;;;;;;5.93;1.70;;;19.10;87.30;;;;;;10449854;28;20049;-26
2022/11/08 14:22:46;;;;;;;4.60;1.30;;;19.10;86.00;;;;;;10448061;28;20049;-25
2022/11/08 14:27:48;;;;;;;3.88;1.63;;;19.50;84.70;;;;;;10448418;28;20095;-27
2022/11/08 14:33:05;;;;;;;6.22;1.45;;;19.40;83.70;;;;;;10442641;28;20623;-25
2022/11/08 14:38:13;;;;;;;8.13;1.45;;;19.60;83.50;;;;;;10449144;28;20102;-24
2022/11/08 14:43:16;;;;;;;7.85;1.80;;;19.70;83.40;;;;;;10430003;28;20422;-24
2022/11/08 14:48:22;;;;;;;8.27;1.40;;;19.50;84.20;;;;;;10448706;28;20103;-22
2022/11/08 14:53:27;;;;;;;3.50;1.20;;;19.50;85.10;;;;;;10452914;28;20048;-26
2022/11/08 14:58:29;;;;;;;4.10;1.20;;;19.60;84.00;;;;;;10435215;28;20539;-25
2022/11/08 15:03:33;;;;;;;4.82;1.20;;;19.50;85.30;;;;;;10445334;28;20040;-26
2022/11/08 15:08:37;;;;;;;3.88;2.10;;;19.30;85.70;;;;;;10439844;28;20072;-24
2022/11/08 15:13:41;;;;;;;3.25;1.48;;;19.30;88.80;;;;;;10442389;28;20077;-24
2022/11/08 15:18:45;;;;;;;6.03;1.52;;;18.80;90.70;;;;;;10444683;28;20104;-26
2022/11/08 15:23:49;;;;;;;5.65;1.40;;;18.80;90.60;;;;;;10450332;28;20057;-27
2022/11/08 15:28:59;;;;;;;5.78;1.65;;;19.30;89.70;;;;;;10471298;28;21046;-24
2022/11/08 15:34:02;;;;;;;5.47;1.30;;;19.70;86.20;;;;;;10481323;28;20473;-23
2022/11/08 15:39:05;;;;;;;4.32;1.27;;;19.30;86.00;;;;;;10431951;28;20061;-25
2022/11/08 15:44:18;;;;;;;3.30;1.27;;;19.40;84.40;;;;;;10423447;28;20096;-26
2022/11/08 15:49:23;;;;;;;5.50;1.10;;;20.00;85.00;;;;;;10441853;28;20119;-26
2022/11/08 15:54:26;;;;;;;2.00;0.80;;;20.30;83.30;;;;;;10449090;28;20077;-26
2022/11/08 15:59:32;;;;;;;6.60;1.75;;;20.50;81.80;;;;;;10439482;28;20386;-27
2022/11/08 16:04:35;;;;;;;3.08;1.40;;;20.00;84.80;;;;;;10420281;28;20053;-27
2022/11/08 16:09:37;;;;;;;5.03;1.55;;;19.90;85.30;;;;;;10445183;28;20044;-24
2022/11/08 16:14:40;;;;;;;4.15;1.10;;;20.30;83.80;;;;;;10442549;28;20045;-28
2022/11/08 16:19:44;;;;;;;2.33;1.33;;;20.40;82.90;;;;;;10463234;28;20048;-25
2022/11/08 16:24:45;;;;;;;2.38;1.00;;;20.10;84.50;;;;;;10431710;28;20049;-24
2022/11/08 16:29:47;;;;;;;3.80;1.80;;;20.20;83.90;;;;;;10427944;28;20948;-26
2022/11/08 16:34:51;;;;;;;5.20;1.55;;;20.00;83.80;;;;;;10424372;28;20080;-24
2022/11/08 16:39:52;;;;;;;6.45;1.20;;;19.60;86.80;;;;;;10419804;28;20481;-28
2022/11/08 16:44:54;;;;;;;8.40;2.03;;;19.60;87.80;;;;;;10424509;28;20080;-25
2022/11/08 16:49:58;;;;;;;4.63;1.30;;;18.40;91.00;;;;;;10427080;28;20053;-26
2022/11/08 16:55:00;;;;;;;3.65;1.48;;;19.40;88.00;;;;;;10444067;28;20084;-26
2022/11/08 17:00:03;;;;;;;;;;;19.00;86.00;;;;;;10446895;28;20050;-27
2022/11/08 17:05:15;;;;;;;7.80;2.00;;;19.20;90.30;;;;;;10456875;28;19974;-27
2022/11/08 17:10:19;;;;;;;6.45;1.75;;;19.20;89.80;;;;;;10452581;28;20045;-23
2022/11/08 17:15:23;;;;;;;7.28;1.73;;;18.60;90.60;;;;;;10458057;28;20114;-25
2022/11/08 17:20:26;;;;;;;8.30;1.38;;;18.60;90.90;;;;;;10435359;28;20484;-25
2022/11/08 17:25:29;;;;;;;4.03;1.50;;;18.80;90.60;;;;;;10457832;28;20478;-27
2022/11/08 17:30:31;;;;;;;4.05;1.30;;;18.70;91.20;;;;;;10427283;28;20051;-24
2022/11/08 17:35:35;;;;;;;5.95;2.25;;;19.50;90.00;;;;;;10425980;28;21084;-25
2022/11/08 17:40:38;;;;;;;5.38;2.17;;;19.50;89.50;;;;;;10436409;28;20137;-25
2022/11/08 17:45:41;;;;;;;6.80;2.40;;;19.30;90.70;;;;;;10433666;28;20048;-27
2022/11/08 17:50:46;;;;;;;8.63;3.25;;;19.60;89.20;;;;;;10456331;28;20059;-25
2022/11/08 17:55:55;;;;;;;6.03;2.50;;;19.40;88.20;;;;;;10442750;28;20111;-26
2022/11/08 18:00:58;;;;;;;11.25;2.50;;;19.00;91.40;;;;;;10434095;28;20047;-26
2022/11/08 18:06:04;;;;;;;48.00;13.75;;;19.00;91.10;;;;;;10441851;28;20480;-25
2022/11/08 18:11:06;;;;;;;37.80;11.32;;;19.20;91.30;;;;;;10452976;28;20053;-24
2022/11/08 18:16:10;;;;;;;54.00;16.02;;;18.60;92.80;;;;;;10454859;28;20057;-25
2022/11/08 18:21:14;;;;;;;29.05;8.52;;;19.30;90.10;;;;;;10434863;28;20104;-27
2022/11/08 18:26:17;;;;;;;38.65;10.20;;;19.00;93.20;;;;;;10437319;28;20513;-27
2022/11/08 18:31:21;;;;;;;30.83;7.68;;;18.40;93.80;;;;;;10429633;28;20501;-31
2022/11/08 18:36:27;;;;;;;21.08;6.95;;;18.20;94.30;;;;;;10452951;28;20128;-27
2022/11/08 18:41:30;;;;;;;35.17;8.77;;;18.40;92.50;;;;;;10460765;28;20145;-27
2022/11/08 18:46:35;;;;;;;19.83;7.05;;;18.10;95.00;;;;;;10434664;28;20099;-25
2022/11/08 18:51:38;;;;;;;20.33;5.80;;;17.50;97.00;;;;;;10420388;28;20041;-27
2022/11/08 18:56:40;;;;;;;23.25;5.65;;;17.70;96.10;;;;;;10440359;28;20477;-30
2022/11/08 19:01:42;;;;;;;13.63;4.50;;;17.80;95.70;;;;;;10437866;28;20049;-27
2022/11/08 19:06:45;;;;;;;7.97;1.80;;;17.40;96.10;;;;;;10442760;28;20049;-29
2022/11/08 19:11:48;;;;;;;7.88;2.72;;;17.00;94.40;;;;;;10443564;28;20593;-28
2022/11/08 19:16:53;;;;;;;;;;;16.90;98.50;;;;;;10456873;28;20056;-29
2022/11/08 19:21:56;;;;;;;12.10;2.85;;;17.20;96.20;;;;;;10437565;28;19970;-28
2022/11/08 19:26:58;;;;;;;6.55;1.92;;;17.60;95.00;;;;;;10453093;28;20498;-30
2022/11/08 19:32:00;;;;;;;9.93;1.93;;;16.10;97.90;;;;;;10432898;28;20086;-28
2022/11/08 19:37:03;;;;;;;10.17;1.30;;;15.20;99.90;;;;;;10455380;28;20410;-27
2022/11/08 19:42:05;;;;;;;5.70;2.03;;;14.60;99.90;;;;;;10448322;28;20465;-27
2022/11/08 19:47:07;;;;;;;7.43;2.00;;;15.30;99.90;;;;;;10443186;28;20052;-27
2022/11/08 19:52:11;;;;;;;9.38;1.75;;;16.20;96.10;;;;;;10431484;28;20076;-25
2022/11/08 19:57:13;;;;;;;12.05;1.65;;;16.10;98.20;;;;;;10442318;28;20148;-26
2022/11/08 20:02:15;;;;;;;10.68;2.60;;;18.60;94.80;;;;;;10439973;28;20045;-27
2022/11/08 20:07:18;;;;;;;13.07;3.13;;;17.80;93.70;;;;;;10440745;28;20405;-33
2022/11/08 20:12:20;;;;;;;12.10;3.20;;;17.10;93.00;;;;;;10426152;28;20053;-29
2022/11/08 20:17:22;;;;;;;10.43;2.03;;;17.40;93.00;;;;;;10446035;28;20107;-27
2022/11/08 20:22:25;;;;;;;11.67;2.13;;;16.90;96.40;;;;;;10452151;28;20501;-28
2022/11/08 20:27:27;;;;;;;6.93;2.50;;;17.80;92.30;;;;;;10454746;28;20094;-28
2022/11/08 20:32:29;;;;;;;11.73;1.80;;;17.60;92.60;;;;;;10476600;28;20080;-27
2022/11/08 20:37:32;;;;;;;6.25;1.83;;;16.50;98.60;;;;;;10453875;28;20052;-25
2022/11/08 20:42:34;;;;;;;13.45;1.67;;;18.40;96.40;;;;;;10445644;28;20099;-31
2022/11/08 20:47:36;;;;;;;9.90;2.10;;;17.00;95.10;;;;;;10455901;28;20086;-28
2022/11/08 20:52:39;;;;;;;8.63;1.70;;;18.00;97.20;;;;;;10446371;28;20121;-28
2022/11/08 20:57:41;;;;;;;9.43;1.70;;;16.50;99.90;;;;;;10451393;28;20051;-29
2022/11/08 21:02:43;;;;;;;7.80;1.60;;;15.10;99.90;;;;;;10453324;28;20132;-30
2022/11/08 21:07:46;;;;;;;9.70;1.40;;;14.80;99.90;;;;;;10442936;28;20565;-35
2022/11/08 21:12:48;;;;;;;8.82;1.92;;;15.20;99.90;;;;;;10443423;28;20528;-33
2022/11/08 21:17:50;;;;;;;4.78;1.17;;;15.40;99.10;;;;;;10443240;28;20410;-27
2022/11/08 21:22:53;;;;;;;7.63;1.00;;;16.80;99.90;;;;;;10458344;28;20071;-31
2022/11/08 21:27:55;;;;;;;5.72;1.10;;;17.20;97.20;;;;;;10455917;28;20037;-38
2022/11/08 21:32:57;;;;;;;12.77;1.02;;;18.40;95.30;;;;;;10454272;28;20477;-28
2022/11/08 21:38:02;;;;;;;6.25;1.17;;;18.40;94.00;;;;;;10463038;28;20044;-28
2022/11/08 21:43:04;;;;;;;5.65;1.40;;;19.30;91.70;;;;;;10449654;28;20053;-28
2022/11/08 21:48:07;;;;;;;8.35;1.40;;;20.00;88.30;;;;;;10450885;28;20044;-31
2022/11/08 21:53:12;;;;;;;8.50;1.00;;;20.00;88.90;;;;;;10448750;28;20044;-33
2022/11/08 21:58:14;;;;;;;7.00;1.33;;;19.90;89.40;;;;;;10441256;28;20053;-33
2022/11/08 22:03:16;;;;;;;3.88;1.15;;;20.10;88.50;;;;;;10449217;28;20048;-34
2022/11/08 22:08:19;;;;;;;8.50;1.30;;;19.40;89.70;;;;;;10453092;28;20477;-30
2022/11/08 22:13:21;;;;;;;5.95;1.30;;;18.70;87.70;;;;;;10459734;28;20049;-25
2022/11/08 22:18:23;;;;;;;9.88;1.33;;;17.90;94.30;;;;;;10442735;28;20450;-30
2022/11/08 22:23:27;;;;;;;5.05;1.20;;;17.10;97.40;;;;;;10474114;28;20053;-32
2022/11/08 22:28:29;;;;;;;14.30;2.28;;;16.90;97.70;;;;;;10450736;28;20456;-33
2022/11/08 22:33:31;;;;;;;6.30;1.63;;;16.10;99.00;;;;;;10442289;28;20486;-28
2022/11/08 22:38:34;;;;;;;7.57;1.20;;;16.70;99.40;;;;;;10442443;28;20124;-30
2022/11/08 22:43:36;;;;;;;15.70;2.90;;;16.20;99.90;;;;;;10438740;28;20037;-28
2022/11/08 22:48:38;;;;;;;10.13;1.40;;;16.10;98.30;;;;;;10440259;28;20055;-27
2022/11/08 22:53:42;;;;;;;11.38;1.52;;;16.30;99.20;;;;;;10442502;28;20076;-27
2022/11/08 22:58:44;;;;;;;5.47;1.48;;;16.30;98.30;;;;;;10442226;28;20094;-27
2022/11/08 23:03:47;;;;;;;14.57;2.50;;;16.40;99.10;;;;;;10451481;28;20076;-28
2022/11/08 23:08:50;;;;;;;10.80;1.52;;;16.30;98.30;;;;;;10455271;28;20053;-30
2022/11/08 23:24:34;;;;;;;5.72;1.67;;;16.70;98.60;;;;;;10453837;28;20052;-27
2022/11/08 23:34:56;;;;;;;3.72;1.20;;;16.10;99.90;;;;;;10450295;28;20053;-28
2022/11/08 23:45:19;;;;;;;9.98;2.03;;;16.30;98.30;;;;;;10433997;28;20040;-33
2022/11/08 23:50:21;;;;;;;4.20;1.10;;;16.40;97.60;;;;;;10442464;28;20049;-35
2022/11/08 23:55:24;;;;;;;10.13;1.80;;;16.20;99.90;;;;;;10455823;28;20498;-30
